sensor_id;sensor_type;location;lat;lon;timestamp;temperature;humidity
37460;DHT22;23318;50.966;5.284;2023-11-21T00:01:31;8.90;99.90
37460;DHT22;23318;50.966;5.284;2023-11-21T00:03:58;9.00;99.90
37460;DHT22;23318;50.966;5.284;2023-11-21T00:06:23;9.00;99.90
37460;DHT22;23318;50.966;5.284;2023-11-21T00:08:49;9.10;99.90
37460;DHT22;23318;50.966;5.284;2023-11-21T00:11:15;9.50;99.90
37460;DHT22;23318;50.966;5.284;2023-11-21T00:13:40;9.80;99.90
37460;DHT22;23318;50.966;5.284;2023-11-21T00:16:06;10.10;99.90
37460;DHT22;23318;50.966;5.284;2023-11-21T00:18:32;10.00;99.90
37460;DHT22;23318;50.966;5.284;2023-11-21T00:20:58;9.90;99.90
37460;DHT22;23318;50.966;5.284;2023-11-21T00:23:24;10.00;99.90
37460;DHT22;23318;50.966;5.284;2023-11-21T00:25:50;10.30;99.90
37460;DHT22;23318;50.966;5.284;2023-11-21T00:28:16;10.50;99.90
37460;DHT22;23318;50.966;5.284;2023-11-21T00:30:42;10.50;99.90
37460;DHT22;23318;50.966;5.284;2023-11-21T00:33:07;10.50;99.90
37460;DHT22;23318;50.966;5.284;2023-11-21T00:35:33;10.50;99.90
37460;DHT22;23318;50.966;5.284;2023-11-21T00:37:58;10.20;99.90
37460;DHT22;23318;50.966;5.284;2023-11-21T00:40:24;10.30;99.90
37460;DHT22;23318;50.966;5.284;2023-11-21T00:42:50;10.20;99.90
37460;DHT22;23318;50.966;5.284;2023-11-21T00:45:16;10.20;99.90
37460;DHT22;23318;50.966;5.284;2023-11-21T00:47:41;10.30;99.90
37460;DHT22;23318;50.966;5.284;2023-11-21T00:50:09;10.40;99.90
37460;DHT22;23318;50.966;5.284;2023-11-21T00:52:35;10.60;99.90
37460;DHT22;23318;50.966;5.284;2023-11-21T00:55:01;10.60;99.90
37460;DHT22;23318;50.966;5.284;2023-11-21T00:57:28;10.50;99.90
37460;DHT22;23318;50.966;5.284;2023-11-21T00:59:54;10.60;99.90
37460;DHT22;23318;50.966;5.284;2023-11-21T01:02:20;10.50;99.90
37460;DHT22;23318;50.966;5.284;2023-11-21T01:04:45;10.60;99.90
37460;DHT22;23318;50.966;5.284;2023-11-21T01:07:13;10.50;99.90
37460;DHT22;23318;50.966;5.284;2023-11-21T01:09:38;10.50;99.90
37460;DHT22;23318;50.966;5.284;2023-11-21T01:12:04;10.10;99.90
37460;DHT22;23318;50.966;5.284;2023-11-21T01:14:30;9.90;99.90
37460;DHT22;23318;50.966;5.284;2023-11-21T01:16:56;10.10;99.90
37460;DHT22;23318;50.966;5.284;2023-11-21T01:19:21;10.20;99.90
37460;DHT22;23318;50.966;5.284;2023-11-21T01:21:47;10.40;99.90
37460;DHT22;23318;50.966;5.284;2023-11-21T01:24:13;10.60;99.90
37460;DHT22;23318;50.966;5.284;2023-11-21T01:26:38;10.70;99.90
37460;DHT22;23318;50.966;5.284;2023-11-21T01:29:04;10.40;99.90
37460;DHT22;23318;50.966;5.284;2023-11-21T01:31:29;10.50;99.90
37460;DHT22;23318;50.966;5.284;2023-11-21T01:33:56;10.70;99.90
37460;DHT22;23318;50.966;5.284;2023-11-21T01:36:21;10.80;99.90
37460;DHT22;23318;50.966;5.284;2023-11-21T01:38:47;10.70;99.90
37460;DHT22;23318;50.966;5.284;2023-11-21T01:41:16;10.70;99.90
37460;DHT22;23318;50.966;5.284;2023-11-21T01:43:41;10.70;99.90
37460;DHT22;23318;50.966;5.284;2023-11-21T01:46:08;10.70;99.90
37460;DHT22;23318;50.966;5.284;2023-11-21T01:48:34;10.80;99.90
37460;DHT22;23318;50.966;5.284;2023-11-21T01:51:01;10.50;99.90
37460;DHT22;23318;50.966;5.284;2023-11-21T01:53:27;10.60;99.90
37460;DHT22;23318;50.966;5.284;2023-11-21T01:55:55;10.70;99.90
37460;DHT22;23318;50.966;5.284;2023-11-21T01:58:21;10.20;99.90
37460;DHT22;23318;50.966;5.284;2023-11-21T02:00:47;10.20;99.90
37460;DHT22;23318;50.966;5.284;2023-11-21T02:03:16;9.70;99.90
37460;DHT22;23318;50.966;5.284;2023-11-21T02:05:42;9.40;99.90
37460;DHT22;23318;50.966;5.284;2023-11-21T02:08:07;9.70;99.90
37460;DHT22;23318;50.966;5.284;2023-11-21T02:10:34;10.10;99.90
37460;DHT22;23318;50.966;5.284;2023-11-21T02:13:02;9.60;99.90
37460;DHT22;23318;50.966;5.284;2023-11-21T02:15:28;9.40;99.90
37460;DHT22;23318;50.966;5.284;2023-11-21T02:17:54;9.60;99.90
37460;DHT22;23318;50.966;5.284;2023-11-21T02:20:21;9.60;99.90
37460;DHT22;23318;50.966;5.284;2023-11-21T02:25:15;10.00;99.90
37460;DHT22;23318;50.966;5.284;2023-11-21T02:27:41;10.00;99.90
37460;DHT22;23318;50.966;5.284;2023-11-21T02:30:09;10.00;99.90
37460;DHT22;23318;50.966;5.284;2023-11-21T02:32:37;9.70;99.90
37460;DHT22;23318;50.966;5.284;2023-11-21T02:35:05;9.40;99.90
37460;DHT22;23318;50.966;5.284;2023-11-21T02:37:33;9.30;99.90
37460;DHT22;23318;50.966;5.284;2023-11-21T02:39:59;9.30;99.90
37460;DHT22;23318;50.966;5.284;2023-11-21T02:42:25;9.00;99.90
37460;DHT22;23318;50.966;5.284;2023-11-21T02:44:50;9.00;99.90
37460;DHT22;23318;50.966;5.284;2023-11-21T02:47:16;9.10;99.90
37460;DHT22;23318;50.966;5.284;2023-11-21T02:49:42;9.10;99.90
37460;DHT22;23318;50.966;5.284;2023-11-21T02:52:07;9.20;99.90
37460;DHT22;23318;50.966;5.284;2023-11-21T02:54:34;9.10;99.90
37460;DHT22;23318;50.966;5.284;2023-11-21T02:57:02;9.30;99.90
37460;DHT22;23318;50.966;5.284;2023-11-21T02:59:28;9.40;99.90
37460;DHT22;23318;50.966;5.284;2023-11-21T03:01:53;9.00;99.90
37460;DHT22;23318;50.966;5.284;2023-11-21T03:04:19;9.00;99.90
37460;DHT22;23318;50.966;5.284;2023-11-21T03:06:45;9.30;99.90
37460;DHT22;23318;50.966;5.284;2023-11-21T03:09:11;9.40;99.90
37460;DHT22;23318;50.966;5.284;2023-11-21T03:11:39;9.40;99.90
37460;DHT22;23318;50.966;5.284;2023-11-21T03:14:05;9.20;99.90
37460;DHT22;23318;50.966;5.284;2023-11-21T03:16:32;9.00;99.90
37460;DHT22;23318;50.966;5.284;2023-11-21T03:18:58;9.00;99.90
37460;DHT22;23318;50.966;5.284;2023-11-21T03:21:24;9.00;99.90
37460;DHT22;23318;50.966;5.284;2023-11-21T03:23:51;8.90;99.90
37460;DHT22;23318;50.966;5.284;2023-11-21T03:26:18;9.00;99.90
37460;DHT22;23318;50.966;5.284;2023-11-21T03:28:44;8.80;99.90
37460;DHT22;23318;50.966;5.284;2023-11-21T03:31:09;8.90;99.90
37460;DHT22;23318;50.966;5.284;2023-11-21T03:33:35;8.90;99.90
37460;DHT22;23318;50.966;5.284;2023-11-21T03:36:01;9.00;99.90
37460;DHT22;23318;50.966;5.284;2023-11-21T03:38:27;9.10;99.90
37460;DHT22;23318;50.966;5.284;2023-11-21T03:40:52;9.00;99.90
37460;DHT22;23318;50.966;5.284;2023-11-21T03:43:19;8.90;99.90
37460;DHT22;23318;50.966;5.284;2023-11-21T03:45:44;8.70;99.90
37460;DHT22;23318;50.966;5.284;2023-11-21T03:48:12;8.70;99.90
37460;DHT22;23318;50.966;5.284;2023-11-21T03:50:38;8.50;99.90
37460;DHT22;23318;50.966;5.284;2023-11-21T03:53:04;8.50;99.90
37460;DHT22;23318;50.966;5.284;2023-11-21T03:55:29;8.50;99.90
37460;DHT22;23318;50.966;5.284;2023-11-21T03:57:57;8.60;99.90
37460;DHT22;23318;50.966;5.284;2023-11-21T04:00:23;8.50;99.90
37460;DHT22;23318;50.966;5.284;2023-11-21T04:02:49;8.40;99.90
37460;DHT22;23318;50.966;5.284;2023-11-21T04:05:16;8.60;99.90
37460;DHT22;23318;50.966;5.284;2023-11-21T04:07:42;8.60;99.90
37460;DHT22;23318;50.966;5.284;2023-11-21T04:10:09;8.90;99.90
37460;DHT22;23318;50.966;5.284;2023-11-21T04:12:37;9.00;99.90
37460;DHT22;23318;50.966;5.284;2023-11-21T04:15:03;9.10;99.90
37460;DHT22;23318;50.966;5.284;2023-11-21T04:17:29;9.50;99.90
37460;DHT22;23318;50.966;5.284;2023-11-21T04:19:56;9.20;99.90
37460;DHT22;23318;50.966;5.284;2023-11-21T04:22:21;9.10;99.90
37460;DHT22;23318;50.966;5.284;2023-11-21T04:24:47;8.80;99.90
37460;DHT22;23318;50.966;5.284;2023-11-21T04:27:13;8.60;99.90
37460;DHT22;23318;50.966;5.284;2023-11-21T04:29:39;8.50;99.90
37460;DHT22;23318;50.966;5.284;2023-11-21T04:32:06;8.60;99.90
37460;DHT22;23318;50.966;5.284;2023-11-21T04:34:33;8.50;99.90
37460;DHT22;23318;50.966;5.284;2023-11-21T04:37:00;8.60;99.90
37460;DHT22;23318;50.966;5.284;2023-11-21T04:39:26;8.60;99.90
37460;DHT22;23318;50.966;5.284;2023-11-21T04:41:52;8.50;99.90
37460;DHT22;23318;50.966;5.284;2023-11-21T04:44:17;8.80;99.90
37460;DHT22;23318;50.966;5.284;2023-11-21T04:46:43;9.20;99.90
37460;DHT22;23318;50.966;5.284;2023-11-21T04:49:09;9.20;99.90
37460;DHT22;23318;50.966;5.284;2023-11-21T04:51:34;9.70;99.90
37460;DHT22;23318;50.966;5.284;2023-11-21T04:54:00;10.00;99.90
37460;DHT22;23318;50.966;5.284;2023-11-21T04:56:25;10.20;99.90
37460;DHT22;23318;50.966;5.284;2023-11-21T04:58:52;10.00;99.90
37460;DHT22;23318;50.966;5.284;2023-11-21T05:01:18;9.90;99.90
37460;DHT22;23318;50.966;5.284;2023-11-21T05:03:43;10.00;99.90
37460;DHT22;23318;50.966;5.284;2023-11-21T05:06:10;9.70;99.90
37460;DHT22;23318;50.966;5.284;2023-11-21T05:08:35;9.80;99.90
37460;DHT22;23318;50.966;5.284;2023-11-21T05:11:02;10.00;99.90
37460;DHT22;23318;50.966;5.284;2023-11-21T05:13:28;9.90;99.90
37460;DHT22;23318;50.966;5.284;2023-11-21T05:15:57;9.80;99.90
37460;DHT22;23318;50.966;5.284;2023-11-21T05:18:23;9.70;99.90
37460;DHT22;23318;50.966;5.284;2023-11-21T05:20:48;9.40;99.90
37460;DHT22;23318;50.966;5.284;2023-11-21T05:23:14;9.10;99.90
37460;DHT22;23318;50.966;5.284;2023-11-21T05:25:39;9.10;99.90
37460;DHT22;23318;50.966;5.284;2023-11-21T05:28:06;9.30;99.90
37460;DHT22;23318;50.966;5.284;2023-11-21T05:30:32;9.10;99.90
37460;DHT22;23318;50.966;5.284;2023-11-21T05:32:58;9.10;99.90
37460;DHT22;23318;50.966;5.284;2023-11-21T05:35:23;9.10;99.90
37460;DHT22;23318;50.966;5.284;2023-11-21T05:37:49;9.10;99.90
37460;DHT22;23318;50.966;5.284;2023-11-21T05:40:16;8.80;99.90
37460;DHT22;23318;50.966;5.284;2023-11-21T05:42:42;8.80;99.90
37460;DHT22;23318;50.966;5.284;2023-11-21T05:45:08;9.00;99.90
37460;DHT22;23318;50.966;5.284;2023-11-21T05:47:46;8.80;99.90
37460;DHT22;23318;50.966;5.284;2023-11-21T05:50:13;8.70;99.90
37460;DHT22;23318;50.966;5.284;2023-11-21T05:52:46;9.20;99.90
37460;DHT22;23318;50.966;5.284;2023-11-21T05:55:12;9.20;99.90
37460;DHT22;23318;50.966;5.284;2023-11-21T05:57:39;9.20;99.90
37460;DHT22;23318;50.966;5.284;2023-11-21T06:00:08;9.10;99.90
37460;DHT22;23318;50.966;5.284;2023-11-21T06:02:40;9.10;99.90
37460;DHT22;23318;50.966;5.284;2023-11-21T06:05:09;8.90;99.90
37460;DHT22;23318;50.966;5.284;2023-11-21T06:07:35;8.60;99.90
37460;DHT22;23318;50.966;5.284;2023-11-21T06:10:05;8.50;99.90
37460;DHT22;23318;50.966;5.284;2023-11-21T06:12:38;8.40;99.90
37460;DHT22;23318;50.966;5.284;2023-11-21T06:15:06;8.40;99.90
37460;DHT22;23318;50.966;5.284;2023-11-21T06:17:34;8.40;99.90
37460;DHT22;23318;50.966;5.284;2023-11-21T06:20:10;8.40;99.90
37460;DHT22;23318;50.966;5.284;2023-11-21T06:22:41;8.80;99.90
37460;DHT22;23318;50.966;5.284;2023-11-21T06:25:07;8.80;99.90
37460;DHT22;23318;50.966;5.284;2023-11-21T06:27:44;8.50;99.90
37460;DHT22;23318;50.966;5.284;2023-11-21T06:30:11;8.70;99.90
37460;DHT22;23318;50.966;5.284;2023-11-21T06:32:38;8.90;99.90
37460;DHT22;23318;50.966;5.284;2023-11-21T06:35:05;9.00;99.90
37460;DHT22;23318;50.966;5.284;2023-11-21T06:37:32;9.20;99.90
37460;DHT22;23318;50.966;5.284;2023-11-21T06:39:59;9.60;99.90
37460;DHT22;23318;50.966;5.284;2023-11-21T06:42:25;9.90;99.90
37460;DHT22;23318;50.966;5.284;2023-11-21T06:44:51;9.40;99.90
37460;DHT22;23318;50.966;5.284;2023-11-21T06:47:18;9.20;99.90
37460;DHT22;23318;50.966;5.284;2023-11-21T06:49:45;9.20;99.90
37460;DHT22;23318;50.966;5.284;2023-11-21T06:52:13;9.30;99.90
37460;DHT22;23318;50.966;5.284;2023-11-21T06:54:39;9.50;99.90
37460;DHT22;23318;50.966;5.284;2023-11-21T06:57:05;9.60;99.90
37460;DHT22;23318;50.966;5.284;2023-11-21T06:59:30;9.90;99.90
37460;DHT22;23318;50.966;5.284;2023-11-21T07:01:56;10.30;99.90
37460;DHT22;23318;50.966;5.284;2023-11-21T07:04:22;10.40;99.90
37460;DHT22;23318;50.966;5.284;2023-11-21T07:06:48;10.60;99.90
37460;DHT22;23318;50.966;5.284;2023-11-21T07:09:13;10.70;99.90
37460;DHT22;23318;50.966;5.284;2023-11-21T07:11:39;9.90;99.90
37460;DHT22;23318;50.966;5.284;2023-11-21T07:14:05;9.30;99.90
37460;DHT22;23318;50.966;5.284;2023-11-21T07:16:36;9.50;99.90
37460;DHT22;23318;50.966;5.284;2023-11-21T07:19:04;9.80;99.90
37460;DHT22;23318;50.966;5.284;2023-11-21T07:21:35;9.80;99.90
37460;DHT22;23318;50.966;5.284;2023-11-21T07:24:02;9.50;99.90
37460;DHT22;23318;50.966;5.284;2023-11-21T07:26:28;9.20;99.90
37460;DHT22;23318;50.966;5.284;2023-11-21T07:28:54;9.00;99.90
37460;DHT22;23318;50.966;5.284;2023-11-21T07:31:20;9.10;99.90
37460;DHT22;23318;50.966;5.284;2023-11-21T07:33:47;9.40;99.90
37460;DHT22;23318;50.966;5.284;2023-11-21T07:36:13;9.50;99.90
37460;DHT22;23318;50.966;5.284;2023-11-21T07:38:39;9.30;99.90
37460;DHT22;23318;50.966;5.284;2023-11-21T07:41:05;9.40;99.90
37460;DHT22;23318;50.966;5.284;2023-11-21T07:43:34;9.10;99.90
37460;DHT22;23318;50.966;5.284;2023-11-21T07:46:04;9.20;99.90
37460;DHT22;23318;50.966;5.284;2023-11-21T07:48:30;9.10;99.90
37460;DHT22;23318;50.966;5.284;2023-11-21T07:50:57;9.20;99.90
37460;DHT22;23318;50.966;5.284;2023-11-21T07:53:27;9.10;99.90
37460;DHT22;23318;50.966;5.284;2023-11-21T07:55:55;8.90;99.90
37460;DHT22;23318;50.966;5.284;2023-11-21T07:58:21;8.90;99.90
37460;DHT22;23318;50.966;5.284;2023-11-21T08:00:47;8.90;99.90
37460;DHT22;23318;50.966;5.284;2023-11-21T08:03:13;8.90;99.90
37460;DHT22;23318;50.966;5.284;2023-11-21T08:05:39;9.10;99.90
37460;DHT22;23318;50.966;5.284;2023-11-21T08:08:05;9.10;99.90
37460;DHT22;23318;50.966;5.284;2023-11-21T08:10:31;9.00;99.90
37460;DHT22;23318;50.966;5.284;2023-11-21T08:12:57;8.90;99.90
37460;DHT22;23318;50.966;5.284;2023-11-21T08:15:23;9.00;99.90
37460;DHT22;23318;50.966;5.284;2023-11-21T08:17:49;9.10;99.90
37460;DHT22;23318;50.966;5.284;2023-11-21T08:20:15;9.40;99.90
37460;DHT22;23318;50.966;5.284;2023-11-21T08:22:44;9.40;99.90
37460;DHT22;23318;50.966;5.284;2023-11-21T08:25:10;9.30;99.90
37460;DHT22;23318;50.966;5.284;2023-11-21T08:27:36;9.40;99.90
37460;DHT22;23318;50.966;5.284;2023-11-21T08:30:03;9.30;99.90
37460;DHT22;23318;50.966;5.284;2023-11-21T08:32:29;9.40;99.90
37460;DHT22;23318;50.966;5.284;2023-11-21T08:34:57;9.50;99.90
37460;DHT22;23318;50.966;5.284;2023-11-21T08:37:23;9.50;99.90
37460;DHT22;23318;50.966;5.284;2023-11-21T08:39:49;9.70;99.90
37460;DHT22;23318;50.966;5.284;2023-11-21T08:42:15;9.70;99.90
37460;DHT22;23318;50.966;5.284;2023-11-21T08:44:41;9.90;99.90
37460;DHT22;23318;50.966;5.284;2023-11-21T08:47:07;9.80;99.90
37460;DHT22;23318;50.966;5.284;2023-11-21T08:49:33;10.20;99.90
37460;DHT22;23318;50.966;5.284;2023-11-21T08:51:58;10.10;99.90
37460;DHT22;23318;50.966;5.284;2023-11-21T08:54:25;9.90;99.90
37460;DHT22;23318;50.966;5.284;2023-11-21T08:56:54;9.90;99.90
37460;DHT22;23318;50.966;5.284;2023-11-21T08:59:20;9.90;99.90
37460;DHT22;23318;50.966;5.284;2023-11-21T09:01:47;9.90;99.90
37460;DHT22;23318;50.966;5.284;2023-11-21T09:04:12;9.60;99.90
37460;DHT22;23318;50.966;5.284;2023-11-21T09:06:39;9.80;99.90
37460;DHT22;23318;50.966;5.284;2023-11-21T09:09:05;10.10;99.90
37460;DHT22;23318;50.966;5.284;2023-11-21T09:11:32;9.90;99.90
37460;DHT22;23318;50.966;5.284;2023-11-21T09:13:59;9.80;99.90
37460;DHT22;23318;50.966;5.284;2023-11-21T09:16:25;9.90;99.90
37460;DHT22;23318;50.966;5.284;2023-11-21T09:18:51;10.00;99.90
37460;DHT22;23318;50.966;5.284;2023-11-21T09:21:17;10.40;99.90
37460;DHT22;23318;50.966;5.284;2023-11-21T09:23:44;10.30;99.90
37460;DHT22;23318;50.966;5.284;2023-11-21T09:26:10;10.20;99.90
37460;DHT22;23318;50.966;5.284;2023-11-21T09:28:36;10.10;99.90
37460;DHT22;23318;50.966;5.284;2023-11-21T09:31:06;9.90;99.90
37460;DHT22;23318;50.966;5.284;2023-11-21T09:33:34;10.00;99.90
37460;DHT22;23318;50.966;5.284;2023-11-21T09:36:00;10.30;99.90
37460;DHT22;23318;50.966;5.284;2023-11-21T09:38:26;10.60;99.90
37460;DHT22;23318;50.966;5.284;2023-11-21T09:40:54;10.20;99.90
37460;DHT22;23318;50.966;5.284;2023-11-21T09:43:21;10.00;99.90
37460;DHT22;23318;50.966;5.284;2023-11-21T09:45:49;10.10;99.90
37460;DHT22;23318;50.966;5.284;2023-11-21T09:48:20;10.50;99.90
37460;DHT22;23318;50.966;5.284;2023-11-21T09:50:47;10.70;99.90
37460;DHT22;23318;50.966;5.284;2023-11-21T09:53:19;10.50;99.90
37460;DHT22;23318;50.966;5.284;2023-11-21T09:55:52;10.60;99.90
37460;DHT22;23318;50.966;5.284;2023-11-21T09:58:20;10.40;99.90
37460;DHT22;23318;50.966;5.284;2023-11-21T10:00:48;10.40;99.90
37460;DHT22;23318;50.966;5.284;2023-11-21T10:03:15;10.60;99.90
37460;DHT22;23318;50.966;5.284;2023-11-21T10:05:45;10.40;99.90
37460;DHT22;23318;50.966;5.284;2023-11-21T10:08:12;10.30;99.90
37460;DHT22;23318;50.966;5.284;2023-11-21T10:10:48;10.20;99.90
37460;DHT22;23318;50.966;5.284;2023-11-21T10:13:15;10.20;99.90
37460;DHT22;23318;50.966;5.284;2023-11-21T10:15:42;10.50;99.90
37460;DHT22;23318;50.966;5.284;2023-11-21T10:18:14;10.30;99.90
37460;DHT22;23318;50.966;5.284;2023-11-21T10:20:43;10.00;99.90
37460;DHT22;23318;50.966;5.284;2023-11-21T10:23:12;9.80;99.90
37460;DHT22;23318;50.966;5.284;2023-11-21T10:25:38;9.80;99.90
37460;DHT22;23318;50.966;5.284;2023-11-21T10:28:04;9.80;99.90
37460;DHT22;23318;50.966;5.284;2023-11-21T10:30:34;9.80;99.90
37460;DHT22;23318;50.966;5.284;2023-11-21T10:33:03;9.90;99.90
37460;DHT22;23318;50.966;5.284;2023-11-21T10:35:45;9.90;99.90
37460;DHT22;23318;50.966;5.284;2023-11-21T10:38:16;10.30;99.90
37460;DHT22;23318;50.966;5.284;2023-11-21T10:40:43;10.50;99.90
37460;DHT22;23318;50.966;5.284;2023-11-21T10:43:10;10.40;99.90
37460;DHT22;23318;50.966;5.284;2023-11-21T10:45:37;10.40;99.90
37460;DHT22;23318;50.966;5.284;2023-11-21T10:48:06;10.50;99.90
37460;DHT22;23318;50.966;5.284;2023-11-21T10:50:36;11.10;99.90
37460;DHT22;23318;50.966;5.284;2023-11-21T10:53:05;11.40;99.90
37460;DHT22;23318;50.966;5.284;2023-11-21T10:55:32;11.30;99.90
37460;DHT22;23318;50.966;5.284;2023-11-21T10:58:00;11.40;99.90
37460;DHT22;23318;50.966;5.284;2023-11-21T11:00:28;11.50;99.90
37460;DHT22;23318;50.966;5.284;2023-11-21T11:02:55;11.00;99.90
37460;DHT22;23318;50.966;5.284;2023-11-21T11:05:25;11.20;99.90
37460;DHT22;23318;50.966;5.284;2023-11-21T11:07:59;11.20;99.90
37460;DHT22;23318;50.966;5.284;2023-11-21T11:10:27;11.30;99.90
37460;DHT22;23318;50.966;5.284;2023-11-21T11:12:55;11.40;99.90
37460;DHT22;23318;50.966;5.284;2023-11-21T11:15:21;11.20;99.90
37460;DHT22;23318;50.966;5.284;2023-11-21T11:17:48;11.40;99.90
37460;DHT22;23318;50.966;5.284;2023-11-21T11:20:15;11.70;99.90
37460;DHT22;23318;50.966;5.284;2023-11-21T11:28:57;11.00;99.90
37460;DHT22;23318;50.966;5.284;2023-11-21T11:31:50;10.90;99.90
37460;DHT22;23318;50.966;5.284;2023-11-21T11:34:29;11.20;99.90
37460;DHT22;23318;50.966;5.284;2023-11-21T11:37:05;11.30;99.90
37460;DHT22;23318;50.966;5.284;2023-11-21T11:39:35;11.20;99.90
37460;DHT22;23318;50.966;5.284;2023-11-21T11:42:03;11.10;99.90
37460;DHT22;23318;50.966;5.284;2023-11-21T11:47:35;11.10;99.90
37460;DHT22;23318;50.966;5.284;2023-11-21T11:52:41;11.20;99.90
37460;DHT22;23318;50.966;5.284;2023-11-21T11:55:12;11.20;99.90
37460;DHT22;23318;50.966;5.284;2023-11-21T11:57:40;11.20;99.90
37460;DHT22;23318;50.966;5.284;2023-11-21T12:02:40;11.00;99.90
37460;DHT22;23318;50.966;5.284;2023-11-21T12:05:13;11.00;99.90
37460;DHT22;23318;50.966;5.284;2023-11-21T12:07:44;11.20;99.90
37460;DHT22;23318;50.966;5.284;2023-11-21T12:10:15;10.90;99.90
37460;DHT22;23318;50.966;5.284;2023-11-21T12:12:51;10.80;99.90
37460;DHT22;23318;50.966;5.284;2023-11-21T12:15:18;10.80;99.90
37460;DHT22;23318;50.966;5.284;2023-11-21T12:17:45;11.10;99.90
37460;DHT22;23318;50.966;5.284;2023-11-21T12:20:12;11.20;99.90
37460;DHT22;23318;50.966;5.284;2023-11-21T12:22:55;11.20;99.90
37460;DHT22;23318;50.966;5.284;2023-11-21T12:25:23;11.40;99.90
37460;DHT22;23318;50.966;5.284;2023-11-21T12:27:53;11.50;99.90
37460;DHT22;23318;50.966;5.284;2023-11-21T12:30:24;11.50;99.90
37460;DHT22;23318;50.966;5.284;2023-11-21T12:32:51;11.60;99.90
37460;DHT22;23318;50.966;5.284;2023-11-21T12:35:18;11.50;99.90
37460;DHT22;23318;50.966;5.284;2023-11-21T12:37:47;11.30;99.90
37460;DHT22;23318;50.966;5.284;2023-11-21T12:40:14;11.60;99.90
37460;DHT22;23318;50.966;5.284;2023-11-21T12:42:41;11.50;99.90
37460;DHT22;23318;50.966;5.284;2023-11-21T12:47:49;11.60;99.90
37460;DHT22;23318;50.966;5.284;2023-11-21T12:50:19;11.60;99.90
37460;DHT22;23318;50.966;5.284;2023-11-21T12:52:47;11.70;99.90
37460;DHT22;23318;50.966;5.284;2023-11-21T12:55:23;12.00;99.90
37460;DHT22;23318;50.966;5.284;2023-11-21T12:57:53;11.80;99.90
37460;DHT22;23318;50.966;5.284;2023-11-21T13:00:32;11.80;99.90
37460;DHT22;23318;50.966;5.284;2023-11-21T13:02:59;11.60;99.90
37460;DHT22;23318;50.966;5.284;2023-11-21T13:05:38;11.30;99.90
37460;DHT22;23318;50.966;5.284;2023-11-21T13:08:05;11.70;99.90
37460;DHT22;23318;50.966;5.284;2023-11-21T13:10:34;11.60;99.90
37460;DHT22;23318;50.966;5.284;2023-11-21T13:13:02;11.80;99.90
37460;DHT22;23318;50.966;5.284;2023-11-21T13:15:31;11.60;99.90
37460;DHT22;23318;50.966;5.284;2023-11-21T13:17:58;11.90;99.90
37460;DHT22;23318;50.966;5.284;2023-11-21T13:20:27;12.20;99.90
37460;DHT22;23318;50.966;5.284;2023-11-21T13:22:55;12.40;99.90
37460;DHT22;23318;50.966;5.284;2023-11-21T13:25:28;12.40;99.90
37460;DHT22;23318;50.966;5.284;2023-11-21T13:27:54;12.30;99.90
37460;DHT22;23318;50.966;5.284;2023-11-21T13:30:22;12.50;99.90
37460;DHT22;23318;50.966;5.284;2023-11-21T13:33:14;12.70;99.90
37460;DHT22;23318;50.966;5.284;2023-11-21T13:35:46;12.90;99.90
37460;DHT22;23318;50.966;5.284;2023-11-21T13:38:16;13.20;99.90
37460;DHT22;23318;50.966;5.284;2023-11-21T13:40:50;13.10;99.90
37460;DHT22;23318;50.966;5.284;2023-11-21T13:43:20;13.10;99.90
37460;DHT22;23318;50.966;5.284;2023-11-21T13:45:48;12.90;99.90
37460;DHT22;23318;50.966;5.284;2023-11-21T13:48:24;13.00;99.90
37460;DHT22;23318;50.966;5.284;2023-11-21T13:51:16;13.30;99.90
37460;DHT22;23318;50.966;5.284;2023-11-21T13:53:46;13.40;99.90
37460;DHT22;23318;50.966;5.284;2023-11-21T13:56:15;13.40;99.90
37460;DHT22;23318;50.966;5.284;2023-11-21T13:58:49;13.30;99.90
37460;DHT22;23318;50.966;5.284;2023-11-21T14:01:20;13.30;99.90
37460;DHT22;23318;50.966;5.284;2023-11-21T14:03:56;13.40;99.90
37460;DHT22;23318;50.966;5.284;2023-11-21T14:06:40;13.30;99.90
37460;DHT22;23318;50.966;5.284;2023-11-21T14:09:17;13.10;99.90
37460;DHT22;23318;50.966;5.284;2023-11-21T14:11:51;13.20;99.90
37460;DHT22;23318;50.966;5.284;2023-11-21T14:14:22;13.20;99.90
37460;DHT22;23318;50.966;5.284;2023-11-21T14:16:48;13.40;99.90
37460;DHT22;23318;50.966;5.284;2023-11-21T14:19:13;13.10;99.90
37460;DHT22;23318;50.966;5.284;2023-11-21T14:21:41;13.10;99.90
37460;DHT22;23318;50.966;5.284;2023-11-21T14:24:11;13.20;99.90
37460;DHT22;23318;50.966;5.284;2023-11-21T14:26:43;13.30;99.90
37460;DHT22;23318;50.966;5.284;2023-11-21T14:29:11;13.30;99.90
37460;DHT22;23318;50.966;5.284;2023-11-21T14:31:40;13.30;99.90
37460;DHT22;23318;50.966;5.284;2023-11-21T14:34:07;13.30;99.90
37460;DHT22;23318;50.966;5.284;2023-11-21T14:36:33;13.40;99.90
37460;DHT22;23318;50.966;5.284;2023-11-21T14:38:59;13.40;99.90
37460;DHT22;23318;50.966;5.284;2023-11-21T14:41:25;13.40;99.90
37460;DHT22;23318;50.966;5.284;2023-11-21T14:43:51;13.10;99.90
37460;DHT22;23318;50.966;5.284;2023-11-21T14:46:17;13.10;99.90
37460;DHT22;23318;50.966;5.284;2023-11-21T14:48:45;12.70;99.90
37460;DHT22;23318;50.966;5.284;2023-11-21T14:51:25;12.60;99.90
37460;DHT22;23318;50.966;5.284;2023-11-21T14:53:57;12.60;99.90
37460;DHT22;23318;50.966;5.284;2023-11-21T14:56:28;12.70;99.90
37460;DHT22;23318;50.966;5.284;2023-11-21T14:58:59;12.50;99.90
37460;DHT22;23318;50.966;5.284;2023-11-21T15:01:32;12.40;99.90
37460;DHT22;23318;50.966;5.284;2023-11-21T15:04:10;12.60;99.90
37460;DHT22;23318;50.966;5.284;2023-11-21T15:06:49;12.70;99.90
37460;DHT22;23318;50.966;5.284;2023-11-21T15:09:15;12.80;99.90
37460;DHT22;23318;50.966;5.284;2023-11-21T15:11:40;12.80;99.90
37460;DHT22;23318;50.966;5.284;2023-11-21T15:14:07;12.70;99.90
37460;DHT22;23318;50.966;5.284;2023-11-21T15:16:35;12.80;99.90
37460;DHT22;23318;50.966;5.284;2023-11-21T15:19:15;12.80;99.90
37460;DHT22;23318;50.966;5.284;2023-11-21T15:21:44;12.90;99.90
37460;DHT22;23318;50.966;5.284;2023-11-21T15:24:11;12.80;99.90
37460;DHT22;23318;50.966;5.284;2023-11-21T15:26:37;12.70;99.90
37460;DHT22;23318;50.966;5.284;2023-11-21T15:29:03;12.60;99.90
37460;DHT22;23318;50.966;5.284;2023-11-21T15:31:28;12.40;99.90
37460;DHT22;23318;50.966;5.284;2023-11-21T15:33:54;12.30;99.90
37460;DHT22;23318;50.966;5.284;2023-11-21T15:36:24;12.40;99.90
37460;DHT22;23318;50.966;5.284;2023-11-21T15:38:50;12.40;99.90
37460;DHT22;23318;50.966;5.284;2023-11-21T15:41:15;12.30;99.90
37460;DHT22;23318;50.966;5.284;2023-11-21T15:43:41;12.30;99.90
37460;DHT22;23318;50.966;5.284;2023-11-21T15:46:06;12.30;99.90
37460;DHT22;23318;50.966;5.284;2023-11-21T15:48:36;12.20;99.90
37460;DHT22;23318;50.966;5.284;2023-11-21T15:51:04;12.20;99.90
37460;DHT22;23318;50.966;5.284;2023-11-21T15:53:30;12.10;99.90
37460;DHT22;23318;50.966;5.284;2023-11-21T15:55:57;12.10;99.90
37460;DHT22;23318;50.966;5.284;2023-11-21T15:58:23;12.00;99.90
37460;DHT22;23318;50.966;5.284;2023-11-21T16:00:50;12.00;99.90